Time;durP1;ratioP1;P1;durP2;ratioP2;P2;SDS_P1;SDS_P2;PMS_P1;PMS_P2;Temp;Humidity;BMP_temperature;BMP_pressure;BME280_temperature;BME280_humidity;BME280_pressure;Samples;Min_cycle;Max_cycle;Signal;HPM_P1;HPM_P2
2022/07/12 00:02:20;;;;;;;1.52;1.15;;;;;;;;;;4361292;32;20183;-86
2022/07/12 00:04:45;;;;;;;1.85;1.00;;;;;;;;;;4361105;32;20249;-85
2022/07/12 00:07:12;;;;;;;6.10;1.17;;;;;;;;;;4361232;32;20750;-89
2022/07/12 00:09:38;;;;;;;1.27;1.02;;;;;;;;;;4347638;32;20652;-85
2022/07/12 00:12:04;;;;;;;5.10;1.42;;;;;;;;;;4361027;32;20575;-90
2022/07/12 00:14:31;;;;;;;1.98;1.20;;;;;;;;;;4347491;32;20525;-86
2022/07/12 00:16:58;;;;;;;3.00;1.17;;;;;;;;;;4360887;32;20565;-85
2022/07/12 00:19:24;;;;;;;2.45;1.35;;;;;;;;;;4360888;32;20582;-86
2022/07/12 00:21:50;;;;;;;1.70;1.50;;;;;;;;;;4360913;32;20651;-89
2022/07/12 00:24:16;;;;;;;3.12;1.37;;;;;;;;;;4347216;32;20218;-85
2022/07/12 00:26:42;;;;;;;2.17;1.17;;;;;;;;;;4360869;32;20190;-86
2022/07/12 00:29:08;;;;;;;1.08;0.98;;;;;;;;;;4347207;32;20603;-85
2022/07/12 00:31:34;;;;;;;2.85;1.60;;;;;;;;;;4360543;32;20661;-86
2022/07/12 00:34:00;;;;;;;1.20;1.10;;;;;;;;;;4360653;32;20619;-88
2022/07/12 00:36:26;;;;;;;1.73;1.30;;;;;;;;;;4360735;32;20266;-87
2022/07/12 00:38:53;;;;;;;3.40;1.37;;;;;;;;;;4360708;32;20252;-85
2022/07/12 00:41:19;;;;;;;5.65;1.23;;;;;;;;;;4359350;32;20770;-89
2022/07/12 00:43:45;;;;;;;4.03;1.25;;;;;;;;;;4360474;32;20675;-89
2022/07/12 00:46:14;;;;;;;3.53;1.15;;;;;;;;;;4360547;32;20669;-85
2022/07/12 00:48:39;;;;;;;5.12;1.40;;;;;;;;;;4346656;32;20571;-86
2022/07/12 00:51:07;;;;;;;1.35;1.20;;;;;;;;;;4347174;32;20253;-89
2022/07/12 00:53:33;;;;;;;4.85;1.27;;;;;;;;;;4360696;32;20652;-85
2022/07/12 00:55:59;;;;;;;2.08;1.12;;;;;;;;;;4360291;32;20678;-86
2022/07/12 00:58:26;;;;;;;1.83;1.55;;;;;;;;;;4360224;32;20575;-84
2022/07/12 01:00:54;;;;;;;1.17;0.93;;;;;;;;;;4360498;32;20548;-86
2022/07/12 01:03:20;;;;;;;2.65;1.30;;;;;;;;;;4360149;32;20545;-88
2022/07/12 01:05:47;;;;;;;3.72;1.37;;;;;;;;;;4346886;32;20582;-88
2022/07/12 01:08:14;;;;;;;1.27;1.17;;;;;;;;;;4346995;32;20540;-85
2022/07/12 01:10:42;;;;;;;1.40;1.15;;;;;;;;;;4346682;32;20564;-90
2022/07/12 01:13:08;;;;;;;1.58;1.33;;;;;;;;;;4358796;32;20551;-85
2022/07/12 01:15:35;;;;;;;5.62;1.35;;;;;;;;;;4360484;32;20554;-86
2022/07/12 01:18:02;;;;;;;2.05;1.35;;;;;;;;;;4359899;32;20603;-86
2022/07/12 01:20:29;;;;;;;1.77;1.12;;;;;;;;;;4359793;32;20651;-86
2022/07/12 01:22:59;;;;;;;2.92;1.25;;;;;;;;;;4359931;32;20544;-85
2022/07/12 01:25:25;;;;;;;1.90;1.30;;;;;;;;;;4360691;32;20538;-88
2022/07/12 01:27:52;;;;;;;1.35;1.23;;;;;;;;;;4362139;32;20550;-90
2022/07/12 01:30:19;;;;;;;3.03;1.40;;;;;;;;;;4349178;32;20237;-85
2022/07/12 01:32:45;;;;;;;2.47;1.60;;;;;;;;;;4339132;32;20234;-84
2022/07/12 01:35:13;;;;;;;2.00;1.37;;;;;;;;;;4362389;32;20218;-83
2022/07/12 01:37:42;;;;;;;2.53;1.48;;;;;;;;;;4462718;27;20214;-84
2022/07/12 01:42:44;;;;;;;1.55;1.33;;;;;;;;;;4344613;30;20275;-85
2022/07/12 01:45:12;;;;;;;4.95;1.87;;;;;;;;;;4416112;27;20635;-84
2022/07/12 01:47:39;;;;;;;4.53;1.50;;;;;;;;;;4371831;32;20237;-84
2022/07/12 01:50:10;;;;;;;2.50;1.48;;;;;;;;;;4386912;27;20246;-89
2022/07/12 01:52:41;;;;;;;3.37;1.25;;;;;;;;;;4366329;32;20799;-82
2022/07/12 01:55:09;;;;;;;1.80;1.25;;;;;;;;;;4356455;32;20363;-85
2022/07/12 01:57:36;;;;;;;5.18;1.40;;;;;;;;;;4482931;27;21231;-83
2022/07/12 02:00:10;;;;;;;1.37;1.23;;;;;;;;;;4359698;33;20180;-84
2022/07/12 02:02:40;;;;;;;4.82;1.60;;;;;;;;;;4346033;33;20223;-85
2022/07/12 02:05:08;;;;;;;1.50;1.30;;;;;;;;;;4356679;33;20254;-85
2022/07/12 02:07:56;;;;;;;4.87;1.73;;;;;;;;;;4323545;33;20241;-84
2022/07/12 02:10:23;;;;;;;1.65;1.27;;;;;;;;;;4310318;33;20675;-86
2022/07/12 02:12:50;;;;;;;2.08;1.12;;;;;;;;;;4314904;33;20661;-88
2022/07/12 02:15:16;;;;;;;4.28;2.00;;;;;;;;;;4313677;33;20557;-89
2022/07/12 02:17:43;;;;;;;4.10;1.83;;;;;;;;;;4313199;33;20569;-85
2022/07/12 02:20:12;;;;;;;6.45;1.95;;;;;;;;;;4313221;33;20601;-86
2022/07/12 02:22:38;;;;;;;3.20;1.50;;;;;;;;;;4312947;33;20601;-86
2022/07/12 02:25:05;;;;;;;2.70;1.77;;;;;;;;;;4312970;33;20271;-85
2022/07/12 02:27:32;;;;;;;2.90;1.50;;;;;;;;;;4313122;33;20729;-89
2022/07/12 02:29:58;;;;;;;2.03;1.55;;;;;;;;;;4313236;33;20569;-86
2022/07/12 02:32:24;;;;;;;6.12;1.73;;;;;;;;;;4313142;33;20293;-86
2022/07/12 02:34:49;;;;;;;3.12;1.52;;;;;;;;;;4313325;33;20242;-87
2022/07/12 02:37:16;;;;;;;2.67;1.70;;;;;;;;;;4313039;33;20254;-85
2022/07/12 02:39:42;;;;;;;6.93;1.30;;;;;;;;;;4313434;33;20695;-86
2022/07/12 02:42:08;;;;;;;4.57;1.80;;;;;;;;;;4313028;33;20562;-86
2022/07/12 02:44:34;;;;;;;5.10;1.70;;;;;;;;;;4313058;33;20231;-85
2022/07/12 02:47:00;;;;;;;8.90;1.87;;;;;;;;;;4313101;33;20243;-85
2022/07/12 02:49:26;;;;;;;2.83;1.60;;;;;;;;;;4313386;33;20610;-85
2022/07/12 02:51:52;;;;;;;4.05;1.95;;;;;;;;;;4329657;33;20716;-85
2022/07/12 02:54:18;;;;;;;4.35;2.55;;;;;;;;;;4344566;33;20194;-85
2022/07/12 02:56:44;;;;;;;3.20;1.98;;;;;;;;;;4337272;33;20252;-89
2022/07/12 02:59:10;;;;;;;4.72;2.20;;;;;;;;;;4359255;33;20253;-85
2022/07/12 03:01:36;;;;;;;7.45;2.28;;;;;;;;;;4359270;33;20281;-87
2022/07/12 03:04:03;;;;;;;5.22;2.28;;;;;;;;;;4358834;33;20598;-86
2022/07/12 03:06:29;;;;;;;4.62;2.33;;;;;;;;;;4358978;33;20659;-87
2022/07/12 03:08:54;;;;;;;5.22;2.55;;;;;;;;;;4345671;33;20286;-86
2022/07/12 03:11:20;;;;;;;4.37;2.00;;;;;;;;;;4360863;32;20227;-85
2022/07/12 03:13:47;;;;;;;4.97;2.25;;;;;;;;;;4361901;32;20213;-84
2022/07/12 03:16:13;;;;;;;2.00;1.67;;;;;;;;;;4361860;32;20635;-90
2022/07/12 03:18:40;;;;;;;4.93;2.00;;;;;;;;;;4361800;32;20583;-89
2022/07/12 03:21:06;;;;;;;5.00;1.85;;;;;;;;;;4348297;32;20642;-86
2022/07/12 03:23:32;;;;;;;6.53;2.20;;;;;;;;;;4348053;32;20364;-85
2022/07/12 03:25:57;;;;;;;6.25;1.83;;;;;;;;;;4347565;32;20226;-85
2022/07/12 03:28:25;;;;;;;2.87;1.80;;;;;;;;;;4361692;32;20305;-86
2022/07/12 03:30:51;;;;;;;9.88;2.05;;;;;;;;;;4361372;32;20527;-85
2022/07/12 03:33:17;;;;;;;2.55;1.85;;;;;;;;;;4348431;32;20194;-84
2022/07/12 03:35:42;;;;;;;5.12;2.37;;;;;;;;;;4361265;32;20242;-86
2022/07/12 03:38:08;;;;;;;6.43;2.53;;;;;;;;;;4347964;32;20326;-85
2022/07/12 03:40:35;;;;;;;7.68;3.78;;;;;;;;;;4361773;32;20650;-86
2022/07/12 03:43:01;;;;;;;12.82;4.90;;;;;;;;;;4347672;32;20667;-85
2022/07/12 03:45:27;;;;;;;14.35;5.45;;;;;;;;;;4361404;32;20608;-87
2022/07/12 03:47:53;;;;;;;15.23;5.28;;;;;;;;;;4360153;32;20587;-86
2022/07/12 03:50:19;;;;;;;6.87;3.67;;;;;;;;;;4361172;32;20199;-85
2022/07/12 03:52:45;;;;;;;7.50;3.67;;;;;;;;;;4347633;32;20222;-88
2022/07/12 03:55:13;;;;;;;2.95;2.30;;;;;;;;;;4361177;32;20745;-87
2022/07/12 03:57:39;;;;;;;7.15;2.90;;;;;;;;;;4347448;32;20543;-88
2022/07/12 04:00:15;;;;;;;6.60;2.47;;;;;;;;;;4361241;32;20473;-88
2022/07/12 04:02:42;;;;;;;13.40;3.05;;;;;;;;;;4361253;32;20611;-86
2022/07/12 04:05:08;;;;;;;4.85;2.22;;;;;;;;;;4361016;32;20524;-87
2022/07/12 04:07:35;;;;;;;4.10;2.42;;;;;;;;;;4361031;32;20560;-85
2022/07/12 04:10:01;;;;;;;7.28;2.70;;;;;;;;;;4347531;32;20571;-89
2022/07/12 04:12:27;;;;;;;7.62;2.47;;;;;;;;;;4347400;32;20606;-84
2022/07/12 04:14:53;;;;;;;6.45;2.92;;;;;;;;;;4347315;32;20230;-85
2022/07/12 04:17:19;;;;;;;6.55;3.08;;;;;;;;;;4360692;32;20227;-88
2022/07/12 04:19:45;;;;;;;11.07;3.45;;;;;;;;;;4361324;32;20536;-87
2022/07/12 04:22:11;;;;;;;4.57;3.03;;;;;;;;;;4360929;32;20352;-83
2022/07/12 04:24:37;;;;;;;4.65;2.85;;;;;;;;;;4347367;32;20222;-89
2022/07/12 04:27:03;;;;;;;3.37;2.37;;;;;;;;;;4346893;32;20230;-85
2022/07/12 04:29:29;;;;;;;4.78;3.17;;;;;;;;;;4347240;32;20640;-85
2022/07/12 04:31:55;;;;;;;10.13;4.03;;;;;;;;;;4360328;32;20218;-85
2022/07/12 04:34:24;;;;;;;7.12;3.70;;;;;;;;;;4360991;32;20615;-87
2022/07/12 04:36:50;;;;;;;7.53;3.70;;;;;;;;;;4358907;32;20610;-84
2022/07/12 04:39:17;;;;;;;5.07;2.90;;;;;;;;;;4347195;32;20277;-84
2022/07/12 04:41:43;;;;;;;5.75;3.00;;;;;;;;;;4360311;32;20548;-85
2022/07/12 04:44:10;;;;;;;6.15;3.45;;;;;;;;;;4360583;32;20583;-86
2022/07/12 04:46:36;;;;;;;7.22;2.30;;;;;;;;;;4346895;32;20600;-87
2022/07/12 04:49:02;;;;;;;3.10;2.33;;;;;;;;;;4360712;32;20297;-88
2022/07/12 04:51:28;;;;;;;8.60;2.75;;;;;;;;;;4360654;32;20659;-85
2022/07/12 04:53:54;;;;;;;3.97;2.90;;;;;;;;;;4346770;32;20590;-85
2022/07/12 04:56:20;;;;;;;2.92;2.55;;;;;;;;;;4360146;32;20665;-85
2022/07/12 04:58:46;;;;;;;10.52;2.22;;;;;;;;;;4346713;32;20230;-84
2022/07/12 05:01:11;;;;;;;9.95;3.15;;;;;;;;;;4360467;32;20244;-85
2022/07/12 05:03:37;;;;;;;3.08;2.03;;;;;;;;;;4358818;32;20433;-88
2022/07/12 05:06:04;;;;;;;2.55;2.00;;;;;;;;;;4360247;32;20237;-85
2022/07/12 05:08:30;;;;;;;7.37;2.83;;;;;;;;;;4360240;32;20575;-85
2022/07/12 05:10:56;;;;;;;6.72;3.72;;;;;;;;;;4360473;32;20217;-86
2022/07/12 05:13:22;;;;;;;5.22;3.00;;;;;;;;;;4346326;32;20667;-84
2022/07/12 05:15:48;;;;;;;6.30;4.10;;;;;;;;;;4359836;32;20678;-85
2022/07/12 05:18:14;;;;;;;13.68;4.80;;;;;;;;;;4360402;32;20246;-85
2022/07/12 05:20:41;;;;;;;34.53;7.12;;;;;;;;;;4359729;32;20612;-94
2022/07/12 05:23:07;;;;;;;10.35;4.60;;;;;;;;;;4346402;32;20631;-84
2022/07/12 05:25:33;;;;;;;10.90;4.45;;;;;;;;;;4346605;32;20613;-85
2022/07/12 05:27:59;;;;;;;3.70;2.60;;;;;;;;;;4359349;32;20288;-83
2022/07/12 05:30:25;;;;;;;4.85;2.75;;;;;;;;;;4358336;32;20219;-84
2022/07/12 05:32:52;;;;;;;8.00;2.83;;;;;;;;;;4359303;32;20772;-82
2022/07/12 05:35:18;;;;;;;5.10;2.75;;;;;;;;;;4358059;32;20599;-84
2022/07/12 05:37:43;;;;;;;11.52;3.60;;;;;;;;;;4345879;32;20245;-84
2022/07/12 05:40:10;;;;;;;16.08;4.18;;;;;;;;;;4359355;32;20273;-84
2022/07/12 05:42:36;;;;;;;9.88;2.00;;;;;;;;;;4358029;32;20643;-84
2022/07/12 05:45:02;;;;;;;8.38;2.50;;;;;;;;;;4359410;32;20592;-85
2022/07/12 05:47:28;;;;;;;5.10;2.65;;;;;;;;;;4345571;32;20514;-81
2022/07/12 05:49:54;;;;;;;7.72;3.08;;;;;;;;;;4359429;32;20233;-84
2022/07/12 05:55:05;;;;;;;6.22;3.45;;;;;;;;;;4347894;32;20263;-86
2022/07/12 05:57:32;;;;;;;6.75;3.00;;;;;;;;;;4358839;32;20249;-84
2022/07/12 05:59:58;;;;;;;8.57;2.95;;;;;;;;;;4359522;32;20586;-84
2022/07/12 06:02:23;;;;;;;11.70;3.53;;;;;;;;;;4359089;32;20252;-84
2022/07/12 06:04:49;;;;;;;6.60;2.62;;;;;;;;;;4359685;32;20237;-83
2022/07/12 06:07:15;;;;;;;6.78;2.65;;;;;;;;;;4358647;32;20253;-83
2022/07/12 06:09:41;;;;;;;11.25;2.75;;;;;;;;;;4357876;33;20275;-83
2022/07/12 06:12:07;;;;;;;13.65;2.75;;;;;;;;;;4359035;33;20689;-86
2022/07/12 06:14:34;;;;;;;6.40;2.47;;;;;;;;;;4359252;33;20646;-84
2022/07/12 06:17:00;;;;;;;8.48;2.28;;;;;;;;;;4358803;33;20572;-87
2022/07/12 06:19:26;;;;;;;6.90;2.65;;;;;;;;;;4359221;33;20249;-82
2022/07/12 06:21:52;;;;;;;3.87;2.00;;;;;;;;;;4358844;33;20780;-83
2022/07/12 06:24:19;;;;;;;7.82;2.35;;;;;;;;;;4359013;33;20513;-84
2022/07/12 06:26:44;;;;;;;8.75;2.53;;;;;;;;;;4345714;33;20602;-83
2022/07/12 06:29:10;;;;;;;4.62;2.35;;;;;;;;;;4359265;33;20190;-85
2022/07/12 06:31:36;;;;;;;3.62;1.70;;;;;;;;;;4359247;33;20221;-83
2022/07/12 06:34:02;;;;;;;7.30;2.42;;;;;;;;;;4345047;33;20644;-84
2022/07/12 06:36:28;;;;;;;3.95;2.03;;;;;;;;;;4358480;33;20658;-84
2022/07/12 06:38:55;;;;;;;1.95;1.48;;;;;;;;;;4359092;33;20624;-82
2022/07/12 06:41:21;;;;;;;3.17;2.17;;;;;;;;;;4358588;33;20710;-84
2022/07/12 06:43:47;;;;;;;7.12;2.70;;;;;;;;;;4358762;33;20183;-84
2022/07/12 06:46:12;;;;;;;3.20;2.08;;;;;;;;;;4360518;32;20249;-84
2022/07/12 06:48:38;;;;;;;3.03;1.75;;;;;;;;;;4361747;32;20221;-86
2022/07/12 06:51:04;;;;;;;3.35;1.83;;;;;;;;;;4361075;32;20637;-83
2022/07/12 06:53:30;;;;;;;3.08;1.95;;;;;;;;;;4361462;32;20253;-84
2022/07/12 06:55:57;;;;;;;6.93;1.90;;;;;;;;;;4361649;32;20207;-85
2022/07/12 06:58:23;;;;;;;1.98;1.48;;;;;;;;;;4361005;32;20685;-84
2022/07/12 07:00:49;;;;;;;4.68;2.20;;;;;;;;;;4348012;32;20541;-84
2022/07/12 07:03:14;;;;;;;5.20;1.90;;;;;;;;;;4361873;32;20226;-83
2022/07/12 07:05:40;;;;;;;3.75;1.90;;;;;;;;;;4361809;32;20213;-83
2022/07/12 07:08:07;;;;;;;3.42;2.05;;;;;;;;;;4361349;32;20682;-83
2022/07/12 07:10:35;;;;;;;3.45;1.73;;;;;;;;;;4361186;32;20590;-84
2022/07/12 07:13:01;;;;;;;5.53;2.00;;;;;;;;;;4347529;32;20556;-82
2022/07/12 07:15:27;;;;;;;9.85;2.30;;;;;;;;;;4361665;32;20581;-82
2022/07/12 07:17:54;;;;;;;4.97;1.67;;;;;;;;;;4348588;32;20563;-81
2022/07/12 07:20:20;;;;;;;2.17;1.37;;;;;;;;;;4363385;32;20549;-85
2022/07/12 07:22:47;;;;;;;3.75;1.95;;;;;;;;;;4348695;32;20564;-86
2022/07/12 07:25:13;;;;;;;3.05;1.42;;;;;;;;;;4348500;32;20528;-83
2022/07/12 07:27:41;;;;;;;5.87;2.65;;;;;;;;;;4360071;32;20655;-84
2022/07/12 07:32:51;;;;;;;8.18;2.22;;;;;;;;;;4349858;32;20350;-85
2022/07/12 07:35:17;;;;;;;8.82;2.47;;;;;;;;;;4361406;32;20247;-85
2022/07/12 07:37:43;;;;;;;4.15;1.40;;;;;;;;;;4361361;32;20683;-84
2022/07/12 07:40:09;;;;;;;2.37;1.50;;;;;;;;;;4348004;32;20266;-83
2022/07/12 07:42:35;;;;;;;3.17;1.52;;;;;;;;;;4360799;32;20676;-90
2022/07/12 07:45:03;;;;;;;3.08;1.52;;;;;;;;;;4360977;32;20768;-83
2022/07/12 07:47:29;;;;;;;4.00;2.05;;;;;;;;;;4360831;32;20643;-84
2022/07/12 07:49:56;;;;;;;3.58;1.55;;;;;;;;;;4361006;32;20194;-90
2022/07/12 07:52:22;;;;;;;5.82;1.80;;;;;;;;;;4361129;32;20639;-89
2022/07/12 07:54:48;;;;;;;3.75;1.35;;;;;;;;;;4360977;32;20627;-88
2022/07/12 07:57:13;;;;;;;5.28;0.98;;;;;;;;;;4346752;32;20226;-91
2022/07/12 07:59:40;;;;;;;5.47;1.42;;;;;;;;;;4360784;32;20202;-82
2022/07/12 08:02:06;;;;;;;1.95;1.15;;;;;;;;;;4360638;32;20686;-81
2022/07/12 08:04:31;;;;;;;9.35;1.08;;;;;;;;;;4360395;32;20289;-81
2022/07/12 08:06:58;;;;;;;2.87;1.20;;;;;;;;;;4360464;32;20230;-81
2022/07/12 08:09:24;;;;;;;10.88;1.85;;;;;;;;;;4360939;32;20600;-82
2022/07/12 08:11:49;;;;;;;4.78;1.23;;;;;;;;;;4360774;32;20238;-81
2022/07/12 08:14:15;;;;;;;6.37;1.30;;;;;;;;;;4360216;32;20199;-81
2022/07/12 08:16:42;;;;;;;4.85;1.30;;;;;;;;;;4360438;32;20301;-84
2022/07/12 08:19:10;;;;;;;2.17;1.00;;;;;;;;;;4360821;32;20587;-83
2022/07/12 08:21:36;;;;;;;1.37;0.73;;;;;;;;;;4346848;32;20576;-81
2022/07/12 08:24:04;;;;;;;2.12;0.95;;;;;;;;;;4360380;32;20269;-82
2022/07/12 08:26:30;;;;;;;3.45;1.10;;;;;;;;;;4360591;32;20710;-82
2022/07/12 08:28:56;;;;;;;3.50;1.25;;;;;;;;;;4346663;32;20571;-83
2022/07/12 08:31:23;;;;;;;1.65;0.80;;;;;;;;;;4347059;32;20357;-81
2022/07/12 08:33:49;;;;;;;2.00;1.25;;;;;;;;;;4360475;32;20622;-84
2022/07/12 08:36:15;;;;;;;3.20;1.02;;;;;;;;;;4359911;32;20663;-81
2022/07/12 08:38:44;;;;;;;6.55;1.10;;;;;;;;;;4359999;32;20362;-81
2022/07/12 08:41:14;;;;;;;1.48;1.02;;;;;;;;;;4359868;32;20541;-82
2022/07/12 08:43:41;;;;;;;3.40;1.05;;;;;;;;;;4346787;32;20608;-80
2022/07/12 08:46:12;;;;;;;0.98;0.75;;;;;;;;;;4360121;32;20802;-80
2022/07/12 08:48:39;;;;;;;4.20;1.55;;;;;;;;;;4359632;32;20587;-80
2022/07/12 08:51:14;;;;;;;1.90;0.88;;;;;;;;;;4360060;32;20605;-80
2022/07/12 08:53:41;;;;;;;3.30;0.90;;;;;;;;;;4360105;32;20537;-80
2022/07/12 08:56:27;;;;;;;2.90;0.88;;;;;;;;;;4359512;32;20722;-81
2022/07/12 08:59:13;;;;;;;3.05;0.80;;;;;;;;;;4360036;32;20594;-81
2022/07/12 09:01:41;;;;;;;2.60;1.30;;;;;;;;;;4360131;32;20525;-82
2022/07/12 09:04:30;;;;;;;2.67;0.90;;;;;;;;;;4359749;32;20647;-81
2022/07/12 09:07:12;;;;;;;3.08;1.15;;;;;;;;;;4360142;32;20643;-81
2022/07/12 09:09:44;;;;;;;4.70;1.55;;;;;;;;;;4346013;32;20595;-81
2022/07/12 09:12:22;;;;;;;8.15;1.25;;;;;;;;;;4360584;32;20565;-81
2022/07/12 09:14:52;;;;;;;9.68;1.52;;;;;;;;;;4360170;32;20686;-82
2022/07/12 09:17:22;;;;;;;6.35;1.17;;;;;;;;;;4359287;32;20708;-82
2022/07/12 09:19:58;;;;;;;4.18;1.23;;;;;;;;;;4359643;32;20567;-82
2022/07/12 09:22:24;;;;;;;1.67;1.00;;;;;;;;;;4359480;32;20524;-82
2022/07/12 09:24:50;;;;;;;2.53;0.90;;;;;;;;;;4359713;32;20541;-83
2022/07/12 09:27:16;;;;;;;2.03;0.93;;;;;;;;;;4359935;32;20301;-81
2022/07/12 09:29:49;;;;;;;1.67;1.23;;;;;;;;;;4359500;32;20301;-81
2022/07/12 09:37:46;;;;;;;4.82;1.15;;;;;;;;;;4359398;32;20230;-82
2022/07/12 09:40:12;;;;;;;4.43;1.77;;;;;;;;;;4359254;32;20700;-81
2022/07/12 09:42:39;;;;;;;1.58;0.90;;;;;;;;;;4359519;32;20504;-81
2022/07/12 09:45:09;;;;;;;10.35;1.10;;;;;;;;;;4359296;32;20533;-81
2022/07/12 09:47:35;;;;;;;1.50;0.90;;;;;;;;;;4345872;32;20634;-79
2022/07/12 09:50:04;;;;;;;2.67;0.98;;;;;;;;;;4359039;32;20654;-81
2022/07/12 09:52:34;;;;;;;2.22;0.93;;;;;;;;;;4359147;32;20635;-80
2022/07/12 09:55:02;;;;;;;1.73;1.30;;;;;;;;;;4358761;32;20549;-80
2022/07/12 09:57:32;;;;;;;1.98;0.70;;;;;;;;;;4359047;32;20623;-80
2022/07/12 10:00:00;;;;;;;2.15;0.85;;;;;;;;;;4358500;33;20693;-82
2022/07/12 10:02:26;;;;;;;3.47;2.17;;;;;;;;;;4358362;33;20568;-81
2022/07/12 10:04:53;;;;;;;1.60;0.77;;;;;;;;;;4358377;33;20700;-82
2022/07/12 10:07:20;;;;;;;1.15;0.80;;;;;;;;;;4358519;33;20623;-81
2022/07/12 10:09:50;;;;;;;1.62;0.80;;;;;;;;;;4358576;33;20607;-81
2022/07/12 10:12:24;;;;;;;2.42;0.90;;;;;;;;;;4358745;33;20553;-81
2022/07/12 10:14:58;;;;;;;3.05;1.00;;;;;;;;;;4333061;33;20553;-81
2022/07/12 10:17:24;;;;;;;3.53;0.95;;;;;;;;;;4358644;33;20649;-84
2022/07/12 10:20:14;;;;;;;1.00;0.90;;;;;;;;;;4359042;32;20222;-82
2022/07/12 10:22:40;;;;;;;4.00;1.00;;;;;;;;;;4362543;33;20584;-82
2022/07/12 10:25:26;;;;;;;2.20;0.98;;;;;;;;;;4362429;33;20223;-81
2022/07/12 10:27:52;;;;;;;2.53;1.12;;;;;;;;;;4362335;33;20666;-81
2022/07/12 10:30:23;;;;;;;2.40;1.17;;;;;;;;;;4361704;33;20623;-81
2022/07/12 10:32:53;;;;;;;3.10;1.10;;;;;;;;;;4360165;33;20552;-81
2022/07/12 10:35:27;;;;;;;1.30;0.85;;;;;;;;;;4348508;33;20659;-81
2022/07/12 10:38:16;;;;;;;8.18;1.05;;;;;;;;;;4361573;33;20594;-81
2022/07/12 10:40:44;;;;;;;2.37;1.08;;;;;;;;;;4347663;33;20689;-82
2022/07/12 10:46:18;;;;;;;6.45;0.77;;;;;;;;;;4366896;33;20609;-84
2022/07/12 10:48:45;;;;;;;5.75;1.02;;;;;;;;;;4362752;33;20620;-82
2022/07/12 10:51:16;;;;;;;0.70;0.62;;;;;;;;;;4349247;33;20563;-84
2022/07/12 10:53:44;;;;;;;2.15;0.77;;;;;;;;;;4362418;33;20694;-82
2022/07/12 10:56:25;;;;;;;5.87;0.90;;;;;;;;;;4360228;33;20639;-86
2022/07/12 10:58:54;;;;;;;1.15;0.70;;;;;;;;;;4361416;32;20656;-83
2022/07/12 11:01:28;;;;;;;3.15;0.75;;;;;;;;;;4362251;32;20586;-84
2022/07/12 11:03:56;;;;;;;2.22;0.80;;;;;;;;;;4362243;32;20592;-82
2022/07/12 11:06:24;;;;;;;1.02;0.68;;;;;;;;;;4349002;32;20701;-82
2022/07/12 11:08:57;;;;;;;0.77;0.70;;;;;;;;;;4361920;32;20570;-84
2022/07/12 11:11:28;;;;;;;3.50;0.75;;;;;;;;;;4348411;32;20567;-82
2022/07/12 11:13:54;;;;;;;2.90;0.80;;;;;;;;;;4360407;32;20646;-82
2022/07/12 11:16:21;;;;;;;4.45;1.37;;;;;;;;;;4361318;32;20560;-83
2022/07/12 11:18:47;;;;;;;2.35;0.98;;;;;;;;;;4361093;32;20614;-82
2022/07/12 11:21:14;;;;;;;4.65;0.70;;;;;;;;;;4361752;32;20552;-85
2022/07/12 11:23:43;;;;;;;4.20;0.60;;;;;;;;;;4347516;32;20572;-85
2022/07/12 11:26:10;;;;;;;2.50;1.23;;;;;;;;;;4361139;32;20620;-82
2022/07/12 11:28:37;;;;;;;3.37;1.17;;;;;;;;;;4361224;32;20684;-82
2022/07/12 11:31:17;;;;;;;2.08;0.88;;;;;;;;;;4361169;32;20646;-84
2022/07/12 11:33:46;;;;;;;2.08;0.70;;;;;;;;;;4361393;32;20636;-83
2022/07/12 11:36:13;;;;;;;1.58;1.10;;;;;;;;;;4361301;32;20654;-82
2022/07/12 11:38:42;;;;;;;1.55;0.88;;;;;;;;;;4360972;32;20639;-85
2022/07/12 11:41:09;;;;;;;2.58;0.80;;;;;;;;;;4347537;32;20563;-87
2022/07/12 11:43:36;;;;;;;3.35;0.98;;;;;;;;;;4360716;32;20652;-82
2022/07/12 11:46:04;;;;;;;0.95;0.73;;;;;;;;;;4361297;32;20703;-82
2022/07/12 11:48:33;;;;;;;2.95;0.98;;;;;;;;;;4359883;32;20659;-83
2022/07/12 11:51:05;;;;;;;2.92;0.80;;;;;;;;;;4360862;32;20549;-84
2022/07/12 11:53:32;;;;;;;3.17;0.75;;;;;;;;;;4360886;32;20595;-83
2022/07/12 11:55:59;;;;;;;1.02;0.60;;;;;;;;;;4347689;32;20536;-83
2022/07/12 11:58:27;;;;;;;5.43;0.80;;;;;;;;;;4360612;32;20591;-82
2022/07/12 12:00:55;;;;;;;1.80;1.05;;;;;;;;;;4347428;32;20604;-82
2022/07/12 12:03:22;;;;;;;2.33;0.80;;;;;;;;;;4347044;32;20590;-83
2022/07/12 12:05:50;;;;;;;1.85;0.62;;;;;;;;;;4347365;32;20580;-82
2022/07/12 12:08:17;;;;;;;1.83;0.88;;;;;;;;;;4359840;32;20600;-83
2022/07/12 12:10:52;;;;;;;1.73;0.80;;;;;;;;;;4360575;32;20643;-83
2022/07/12 12:13:19;;;;;;;3.22;1.20;;;;;;;;;;4361306;32;20501;-89
2022/07/12 12:15:53;;;;;;;0.80;0.60;;;;;;;;;;4360994;32;20639;-83
2022/07/12 12:18:34;;;;;;;4.05;0.60;;;;;;;;;;4361235;32;20681;-82
2022/07/12 12:21:05;;;;;;;0.93;0.70;;;;;;;;;;4347095;32;20637;-89
2022/07/12 12:23:31;;;;;;;2.12;0.80;;;;;;;;;;4361149;32;20482;-90
2022/07/12 12:26:11;;;;;;;2.37;0.70;;;;;;;;;;4359238;32;20560;-81
2022/07/12 12:28:42;;;;;;;2.10;0.80;;;;;;;;;;4359470;32;20511;-82
2022/07/12 12:31:09;;;;;;;4.68;0.77;;;;;;;;;;4360406;32;20533;-91
2022/07/12 12:33:35;;;;;;;1.52;1.00;;;;;;;;;;4347159;32;20622;-82
2022/07/12 12:36:29;;;;;;;2.90;0.88;;;;;;;;;;4360843;32;20715;-84
2022/07/12 12:38:56;;;;;;;2.20;0.88;;;;;;;;;;4360323;32;20542;-83
2022/07/12 12:41:24;;;;;;;1.70;0.77;;;;;;;;;;4360202;32;20771;-82
2022/07/12 12:44:00;;;;;;;1.58;0.60;;;;;;;;;;4359884;32;20599;-83
2022/07/12 12:47:44;;;;;;;0.98;0.60;;;;;;;;;;4346663;32;20571;-83
2022/07/12 12:49:50;;;;;;;2.80;0.85;;;;;;;;;;4333401;32;20261;-84
2022/07/12 12:52:16;;;;;;;1.87;1.00;;;;;;;;;;4360274;32;20600;-83
2022/07/12 12:54:42;;;;;;;5.43;1.10;;;;;;;;;;4346444;32;20715;-89
2022/07/12 12:57:09;;;;;;;7.45;1.00;;;;;;;;;;4359944;32;20620;-84
2022/07/12 12:59:37;;;;;;;1.10;0.57;;;;;;;;;;4359852;32;20701;-84
2022/07/12 13:02:05;;;;;;;2.67;0.85;;;;;;;;;;4360124;32;20577;-90
2022/07/12 13:04:33;;;;;;;0.98;0.77;;;;;;;;;;4359008;32;20626;-83
2022/07/12 13:07:00;;;;;;;1.52;0.73;;;;;;;;;;4346701;32;20575;-84
2022/07/12 13:09:28;;;;;;;0.62;0.60;;;;;;;;;;4359799;32;20657;-90
2022/07/12 13:11:55;;;;;;;1.20;0.73;;;;;;;;;;4360266;32;20663;-83
2022/07/12 13:14:26;;;;;;;0.60;0.60;;;;;;;;;;4360487;32;20607;-89
2022/07/12 13:16:51;;;;;;;4.15;0.73;;;;;;;;;;4360075;32;20647;-83
2022/07/12 13:19:17;;;;;;;3.60;1.00;;;;;;;;;;4359629;32;20226;-83
2022/07/12 13:21:43;;;;;;;6.65;0.82;;;;;;;;;;4359837;32;20190;-89
2022/07/12 13:24:10;;;;;;;6.95;1.62;;;;;;;;;;4359971;32;20336;-90
2022/07/12 13:26:37;;;;;;;1.65;0.90;;;;;;;;;;4360318;32;20501;-83
2022/07/12 13:29:03;;;;;;;1.55;1.00;;;;;;;;;;4359706;32;20663;-84
2022/07/12 13:31:29;;;;;;;1.30;0.77;;;;;;;;;;4346320;32;20674;-91
2022/07/12 13:33:56;;;;;;;4.50;1.05;;;;;;;;;;4358213;32;20282;-84
2022/07/12 13:36:22;;;;;;;1.25;0.98;;;;;;;;;;4359702;32;20681;-83
2022/07/12 13:38:49;;;;;;;3.22;1.25;;;;;;;;;;4359525;32;20627;-83
2022/07/12 13:41:15;;;;;;;3.87;0.85;;;;;;;;;;4359681;32;20547;-83
2022/07/12 13:43:41;;;;;;;1.77;0.85;;;;;;;;;;4345868;32;20293;-84
2022/07/12 13:46:06;;;;;;;4.35;1.10;;;;;;;;;;4359843;32;20191;-82
2022/07/12 13:48:33;;;;;;;1.20;0.80;;;;;;;;;;4346127;32;20311;-90
2022/07/12 13:51:00;;;;;;;1.10;0.60;;;;;;;;;;4359739;32;20580;-83
2022/07/12 13:53:26;;;;;;;1.95;0.82;;;;;;;;;;4359608;32;20651;-84
2022/07/12 13:55:52;;;;;;;2.05;0.80;;;;;;;;;;4359764;32;20349;-84
2022/07/12 13:58:19;;;;;;;1.98;0.70;;;;;;;;;;4345633;32;20260;-92
2022/07/12 14:00:45;;;;;;;0.60;0.60;;;;;;;;;;4359422;32;20586;-83
2022/07/12 14:03:11;;;;;;;3.28;1.05;;;;;;;;;;4359050;32;20222;-87
2022/07/12 14:05:37;;;;;;;1.75;0.80;;;;;;;;;;4359555;32;20588;-82
2022/07/12 14:08:04;;;;;;;5.40;1.02;;;;;;;;;;4359184;32;20559;-88
2022/07/12 14:10:33;;;;;;;1.23;0.77;;;;;;;;;;4346460;33;20618;-89
2022/07/12 14:12:59;;;;;;;2.42;0.68;;;;;;;;;;4359556;33;20206;-90
2022/07/12 14:15:39;;;;;;;6.87;0.65;;;;;;;;;;4359730;33;20628;-81
2022/07/12 14:18:06;;;;;;;1.85;0.68;;;;;;;;;;4359195;33;20527;-82
2022/07/12 14:20:33;;;;;;;1.17;0.60;;;;;;;;;;4359178;33;20619;-81
2022/07/12 14:23:00;;;;;;;2.20;1.20;;;;;;;;;;4359521;33;20591;-82
2022/07/12 14:25:26;;;;;;;3.83;1.40;;;;;;;;;;4345804;33;20572;-82
2022/07/12 14:27:52;;;;;;;2.10;1.00;;;;;;;;;;4359324;33;20648;-89
2022/07/12 14:30:18;;;;;;;2.42;1.15;;;;;;;;;;4359364;33;20650;-82
2022/07/12 14:32:45;;;;;;;8.25;0.77;;;;;;;;;;4345628;33;20592;-83
2022/07/12 14:35:11;;;;;;;0.93;0.60;;;;;;;;;;4359320;33;20599;-82
2022/07/12 14:37:38;;;;;;;2.75;1.08;;;;;;;;;;4359278;33;20485;-82
2022/07/12 14:40:05;;;;;;;7.25;1.12;;;;;;;;;;4358580;33;20567;-83
2022/07/12 14:42:31;;;;;;;1.77;0.73;;;;;;;;;;4358893;33;20548;-82
2022/07/12 14:44:58;;;;;;;1.62;0.70;;;;;;;;;;4358992;33;20564;-89
2022/07/12 14:47:24;;;;;;;1.25;0.82;;;;;;;;;;4359359;33;20328;-88
2022/07/12 14:49:53;;;;;;;5.25;1.55;;;;;;;;;;4358960;33;20517;-83
2022/07/12 14:52:19;;;;;;;3.35;1.30;;;;;;;;;;4345450;33;20568;-82
2022/07/12 14:54:45;;;;;;;2.15;0.88;;;;;;;;;;4345106;33;20598;-85
2022/07/12 14:57:11;;;;;;;7.05;1.10;;;;;;;;;;4358911;33;20543;-85
2022/07/12 14:59:37;;;;;;;1.20;0.80;;;;;;;;;;4344967;33;20521;-84
2022/07/12 15:02:03;;;;;;;1.00;0.82;;;;;;;;;;4358900;33;20245;-84
2022/07/12 15:04:30;;;;;;;1.95;0.95;;;;;;;;;;4358389;33;20226;-81